createdAt,value
2019-05-19T00:00:13.054Z,10.97
2019-05-19T00:01:17.347Z,10.96
2019-05-19T00:02:21.729Z,10.94
2019-05-19T00:03:26.027Z,10.93
2019-05-19T00:04:30.361Z,10.91
2019-05-19T00:05:34.691Z,10.90
2019-05-19T00:06:39.009Z,10.88
2019-05-19T00:07:43.353Z,10.87
2019-05-19T00:08:47.623Z,10.87
2019-05-19T00:09:51.892Z,10.87
2019-05-19T00:10:56.260Z,10.86
2019-05-19T00:12:00.505Z,10.85
2019-05-19T00:13:04.858Z,10.87
2019-05-19T00:14:09.190Z,10.84
2019-05-19T00:15:13.394Z,10.81
2019-05-19T00:16:17.773Z,10.79
2019-05-19T00:17:22.069Z,10.79
2019-05-19T00:18:26.424Z,10.78
2019-05-19T00:19:30.753Z,10.80
2019-05-19T00:20:35.102Z,10.81
2019-05-19T00:21:39.481Z,10.82
2019-05-19T00:22:43.815Z,10.83
2019-05-19T00:23:48.151Z,10.85
2019-05-19T00:24:52.454Z,10.84
2019-05-19T00:25:56.781Z,10.82
2019-05-19T00:27:01.096Z,10.78
2019-05-19T00:28:05.413Z,10.76
2019-05-19T00:29:09.745Z,10.75
2019-05-19T00:30:14.016Z,10.77
2019-05-19T00:31:18.375Z,10.78
2019-05-19T00:32:22.815Z,10.80
2019-05-19T00:33:26.976Z,10.80
2019-05-19T00:34:31.361Z,10.79
2019-05-19T00:35:35.665Z,10.78
2019-05-19T00:36:40.007Z,10.75
2019-05-19T00:37:44.371Z,10.71
2019-05-19T00:38:48.654Z,10.69
2019-05-19T00:39:53.009Z,10.72
2019-05-19T00:40:57.326Z,10.70
2019-05-19T00:42:01.651Z,10.68
2019-05-19T00:43:05.989Z,10.68
2019-05-19T00:44:10.278Z,10.67
2019-05-19T00:45:14.635Z,10.68
2019-05-19T00:46:18.918Z,10.70
2019-05-19T00:47:23.174Z,10.70
2019-05-19T00:48:27.534Z,10.66
2019-05-19T00:49:40.885Z,10.67
2019-05-19T00:50:36.154Z,10.67
2019-05-19T00:51:40.463Z,10.66
2019-05-19T00:52:44.815Z,10.69
2019-05-19T00:53:49.139Z,10.69
2019-05-19T00:54:53.449Z,10.71
2019-05-19T00:55:57.762Z,10.71
2019-05-19T00:57:02.032Z,10.70
2019-05-19T00:58:06.380Z,10.73
2019-05-19T00:59:10.704Z,10.73
2019-05-19T01:00:15.007Z,10.72
2019-05-19T01:01:19.320Z,10.71
2019-05-19T01:02:23.641Z,10.71
2019-05-19T01:03:27.975Z,10.69
2019-05-19T01:04:32.249Z,10.66
2019-05-19T01:05:36.579Z,10.63
2019-05-19T01:06:40.860Z,10.61
2019-05-19T01:07:45.207Z,10.58
2019-05-19T01:08:49.536Z,10.58
2019-05-19T01:09:53.836Z,10.58
2019-05-19T01:10:58.166Z,10.58
2019-05-19T01:12:02.372Z,10.59
2019-05-19T01:13:06.777Z,10.61
2019-05-19T01:14:11.045Z,10.64
2019-05-19T01:15:15.315Z,10.68
2019-05-19T01:16:19.676Z,10.69
2019-05-19T01:17:23.896Z,10.70
2019-05-19T01:18:28.147Z,10.70
2019-05-19T01:19:32.504Z,10.70
2019-05-19T01:20:36.717Z,10.69
2019-05-19T01:21:41.093Z,10.67
2019-05-19T01:22:45.443Z,10.64
2019-05-19T01:23:49.641Z,10.64
2019-05-19T01:24:54.026Z,10.63
2019-05-19T01:25:58.219Z,10.61
2019-05-19T01:27:02.586Z,10.58
2019-05-19T01:28:06.915Z,10.59
2019-05-19T01:29:11.215Z,10.60
2019-05-19T01:30:15.488Z,10.62
2019-05-19T01:31:19.789Z,10.64
2019-05-19T01:32:24.126Z,10.66
2019-05-19T01:33:28.479Z,10.65
2019-05-19T01:34:32.782Z,10.61
2019-05-19T01:35:37.087Z,10.59
2019-05-19T01:36:41.397Z,10.57
2019-05-19T01:37:45.726Z,10.56
2019-05-19T01:38:50.030Z,10.57
2019-05-19T01:39:54.363Z,10.56
2019-05-19T01:40:58.569Z,10.55
2019-05-19T01:42:02.890Z,10.56
2019-05-19T01:43:07.251Z,10.56
2019-05-19T01:44:11.536Z,10.56
2019-05-19T01:45:15.876Z,10.57
2019-05-19T01:46:20.159Z,10.60
2019-05-19T01:47:24.439Z,10.62
2019-05-19T01:48:28.774Z,10.64
2019-05-19T01:49:33.093Z,10.68
2019-05-19T01:50:37.390Z,10.70
2019-05-19T01:51:41.685Z,10.73
2019-05-19T01:52:46.000Z,10.75
2019-05-19T01:53:50.234Z,10.75
2019-05-19T01:54:54.520Z,10.77
2019-05-19T01:55:58.886Z,10.79
2019-05-19T01:57:03.201Z,10.78
2019-05-19T01:58:07.520Z,10.80
2019-05-19T01:59:11.787Z,10.82
2019-05-19T02:00:16.118Z,10.81
2019-05-19T02:01:20.401Z,10.82
2019-05-19T02:02:24.594Z,10.83
2019-05-19T02:03:28.937Z,10.85
2019-05-19T02:04:33.295Z,10.84
2019-05-19T02:05:37.578Z,10.86
2019-05-19T02:06:41.863Z,10.88
2019-05-19T02:07:46.174Z,10.91
2019-05-19T02:08:50.494Z,10.94
2019-05-19T02:09:54.785Z,10.98
2019-05-19T02:10:59.114Z,11.02
2019-05-19T02:12:03.443Z,11.05
2019-05-19T02:13:07.740Z,11.09
2019-05-19T02:14:12.060Z,11.12
2019-05-19T02:15:16.248Z,11.15
2019-05-19T02:16:20.633Z,11.17
2019-05-19T02:17:24.914Z,11.18
2019-05-19T02:18:29.226Z,11.18
2019-05-19T02:19:33.588Z,11.21
2019-05-19T02:20:37.887Z,11.24
2019-05-19T02:21:42.216Z,11.26
2019-05-19T02:22:46.564Z,11.27
2019-05-19T02:23:50.846Z,11.31
2019-05-19T02:24:55.213Z,11.33
2019-05-19T02:25:59.538Z,11.34
2019-05-19T02:27:03.830Z,11.37
2019-05-19T02:28:08.164Z,11.39
2019-05-19T02:29:12.369Z,11.41
2019-05-19T02:30:16.748Z,11.42
2019-05-19T02:31:21.063Z,11.44
2019-05-19T02:32:25.389Z,11.46
2019-05-19T02:33:29.771Z,11.48
2019-05-19T02:34:34.043Z,11.49
2019-05-19T02:35:38.363Z,11.50
2019-05-19T02:36:42.693Z,11.51
2019-05-19T02:37:47.027Z,11.52
2019-05-19T02:38:51.285Z,11.54
2019-05-19T02:39:55.586Z,11.55
2019-05-19T02:40:59.931Z,11.58
2019-05-19T02:42:04.290Z,11.59
2019-05-19T02:43:08.537Z,11.60
2019-05-19T02:44:12.857Z,11.61
2019-05-19T02:45:17.182Z,11.63
2019-05-19T02:46:21.511Z,11.64
2019-05-19T02:47:25.791Z,11.66
2019-05-19T02:48:30.127Z,11.66
2019-05-19T02:49:34.433Z,11.68
2019-05-19T02:50:51.403Z,11.68
2019-05-19T02:51:43.027Z,11.69
2019-05-19T02:52:47.303Z,11.71
2019-05-19T02:53:51.685Z,11.71
2019-05-19T02:54:56.006Z,11.72
2019-05-19T02:56:00.343Z,11.73
2019-05-19T02:57:04.648Z,11.74
2019-05-19T02:58:08.894Z,11.75
2019-05-19T02:59:13.146Z,11.75
2019-05-19T03:00:17.462Z,11.76
2019-05-19T03:01:21.796Z,11.74
2019-05-19T03:02:26.164Z,11.77
2019-05-19T03:03:30.376Z,11.78
2019-05-19T03:04:34.797Z,11.77
2019-05-19T03:05:39.092Z,11.78
2019-05-19T03:06:43.449Z,11.78
2019-05-19T03:07:47.750Z,11.78
2019-05-19T03:08:52.068Z,11.77
2019-05-19T03:09:56.393Z,11.77
2019-05-19T03:11:00.782Z,11.75
2019-05-19T03:12:04.913Z,11.74
2019-05-19T03:13:09.317Z,11.75
2019-05-19T03:14:13.616Z,11.74
2019-05-19T03:15:17.917Z,11.75
2019-05-19T03:16:22.280Z,11.77
2019-05-19T03:17:26.609Z,11.77
2019-05-19T03:18:30.887Z,11.78
2019-05-19T03:19:35.210Z,11.78
2019-05-19T03:20:39.552Z,11.78
2019-05-19T03:21:43.923Z,11.79
2019-05-19T03:22:48.119Z,11.78
2019-05-19T03:23:52.458Z,11.78
2019-05-19T03:24:56.773Z,11.78
2019-05-19T03:26:01.105Z,11.78
2019-05-19T03:27:05.473Z,11.77
2019-05-19T03:28:09.792Z,11.76
2019-05-19T03:29:14.126Z,11.75
2019-05-19T03:30:18.446Z,11.76
2019-05-19T03:31:22.745Z,11.75
2019-05-19T03:32:27.095Z,11.75
2019-05-19T03:33:31.398Z,11.78
2019-05-19T03:34:35.703Z,11.79
2019-05-19T03:35:39.991Z,11.80
2019-05-19T03:36:44.320Z,11.81
2019-05-19T03:37:48.523Z,11.81
2019-05-19T03:38:52.921Z,11.80
2019-05-19T03:39:57.250Z,11.79
2019-05-19T03:41:01.602Z,11.77
2019-05-19T03:42:10.089Z,11.78
2019-05-19T03:43:10.230Z,11.80
2019-05-19T03:44:14.491Z,11.81
2019-05-19T03:45:18.873Z,11.83
2019-05-19T03:46:23.197Z,11.84
2019-05-19T03:47:27.543Z,11.85
2019-05-19T03:48:31.864Z,11.87
2019-05-19T03:49:36.088Z,11.87
2019-05-19T03:50:40.393Z,11.88
2019-05-19T03:51:44.724Z,11.89
2019-05-19T03:52:49.045Z,11.91
2019-05-19T03:53:53.366Z,11.92
2019-05-19T03:54:57.631Z,11.93
2019-05-19T03:56:01.906Z,11.95
2019-05-19T03:57:06.314Z,11.95
2019-05-19T03:58:10.692Z,11.97
2019-05-19T03:59:14.998Z,12.00
2019-05-19T04:00:19.329Z,12.02
2019-05-19T04:01:23.639Z,12.04
2019-05-19T04:02:28.017Z,12.05
2019-05-19T04:03:32.269Z,12.06
2019-05-19T04:04:36.532Z,12.07
2019-05-19T04:05:40.902Z,12.06
2019-05-19T04:06:45.150Z,12.07
2019-05-19T04:07:49.440Z,12.07
2019-05-19T04:08:53.747Z,12.09
2019-05-19T04:09:58.092Z,12.10
2019-05-19T04:11:02.436Z,12.11
2019-05-19T04:12:06.768Z,12.12
2019-05-19T04:13:11.092Z,12.11
2019-05-19T04:14:15.437Z,12.12
2019-05-19T04:15:19.693Z,12.13
2019-05-19T04:16:24.132Z,12.13
2019-05-19T04:17:28.426Z,12.09
2019-05-19T04:18:32.780Z,12.12
2019-05-19T04:19:37.090Z,12.13
2019-05-19T04:20:41.439Z,12.12
2019-05-19T04:21:49.257Z,12.14
2019-05-19T04:22:50.090Z,12.17
2019-05-19T04:23:54.284Z,12.18
2019-05-19T04:24:58.659Z,12.19
2019-05-19T04:26:02.989Z,12.20
2019-05-19T04:27:07.296Z,12.21
2019-05-19T04:28:11.640Z,12.21
2019-05-19T04:29:15.943Z,12.23
2019-05-19T04:30:20.295Z,12.23
2019-05-19T04:31:24.618Z,12.24
2019-05-19T04:32:28.958Z,12.24
2019-05-19T04:33:33.315Z,12.25
2019-05-19T04:34:37.610Z,12.28
2019-05-19T04:35:41.972Z,12.29
2019-05-19T04:36:46.338Z,12.30
2019-05-19T04:37:50.681Z,12.32
2019-05-19T04:38:55.102Z,12.33
2019-05-19T04:39:59.347Z,12.36
2019-05-19T04:41:03.590Z,12.37
2019-05-19T04:42:07.998Z,12.39
2019-05-19T04:43:12.341Z,12.40
2019-05-19T04:44:16.652Z,12.41
2019-05-19T04:45:20.997Z,12.39
2019-05-19T04:46:25.300Z,12.40
2019-05-19T04:47:29.640Z,12.39
2019-05-19T04:48:33.888Z,12.37
2019-05-19T04:49:38.136Z,12.38
2019-05-19T04:50:42.533Z,12.40
2019-05-19T04:51:46.773Z,12.31
2019-05-19T04:52:51.150Z,12.34
2019-05-19T04:53:55.497Z,12.37
2019-05-19T04:54:59.692Z,12.37
2019-05-19T04:56:04.052Z,12.42
2019-05-19T04:57:08.383Z,12.43
2019-05-19T04:58:12.739Z,12.44
2019-05-19T04:59:17.052Z,12.43
2019-05-19T05:00:21.366Z,12.44
2019-05-19T05:01:25.753Z,12.45
2019-05-19T05:02:30.044Z,12.48
2019-05-19T05:03:34.428Z,12.51
2019-05-19T05:04:38.766Z,12.53
2019-05-19T05:05:43.091Z,12.50
2019-05-19T05:06:47.420Z,12.50
2019-05-19T05:07:51.749Z,12.51
2019-05-19T05:08:56.072Z,12.51
2019-05-19T05:10:00.441Z,12.53
2019-05-19T05:11:04.740Z,12.52
2019-05-19T05:12:09.042Z,12.57
2019-05-19T05:13:13.339Z,12.60
2019-05-19T05:14:17.715Z,12.63
2019-05-19T05:15:21.971Z,12.67
2019-05-19T05:16:26.368Z,12.65
2019-05-19T05:17:30.716Z,12.65
2019-05-19T05:18:34.924Z,12.66
2019-05-19T05:19:39.245Z,12.65
2019-05-19T05:20:43.615Z,12.66
2019-05-19T05:21:47.841Z,12.65
2019-05-19T05:22:52.227Z,12.68
2019-05-19T05:23:56.578Z,12.69
2019-05-19T05:25:00.904Z,12.69
2019-05-19T05:26:05.248Z,12.56
2019-05-19T05:27:09.564Z,12.60
2019-05-19T05:28:13.892Z,12.63
2019-05-19T05:29:18.201Z,12.61
2019-05-19T05:30:22.490Z,12.60
2019-05-19T05:31:26.852Z,12.50
2019-05-19T05:32:31.204Z,12.59
2019-05-19T05:33:38.434Z,12.62
2019-05-19T05:34:41.922Z,12.63
2019-05-19T05:35:46.220Z,12.64
2019-05-19T05:36:50.547Z,12.62
2019-05-19T05:37:54.847Z,12.68
2019-05-19T05:38:59.124Z,12.71
2019-05-19T05:40:03.531Z,12.74
2019-05-19T05:41:07.852Z,12.75
2019-05-19T05:42:12.113Z,12.75
2019-05-19T05:43:16.459Z,12.78
2019-05-19T05:44:20.814Z,12.81
2019-05-19T05:45:25.191Z,12.77
2019-05-19T05:46:29.554Z,12.76
2019-05-19T05:47:33.806Z,12.78
2019-05-19T05:48:38.048Z,12.79
2019-05-19T05:49:42.422Z,12.80
2019-05-19T05:50:46.791Z,12.84
2019-05-19T05:51:51.081Z,12.86
2019-05-19T05:52:55.402Z,12.85
2019-05-19T05:53:59.748Z,12.86
2019-05-19T05:55:04.068Z,12.85
2019-05-19T05:56:08.426Z,12.85
2019-05-19T05:57:12.719Z,12.86
2019-05-19T05:58:16.938Z,12.86
2019-05-19T05:59:21.208Z,12.84
2019-05-19T06:00:25.604Z,12.85
2019-05-19T06:01:29.962Z,12.89
2019-05-19T06:02:34.297Z,12.94
2019-05-19T06:03:38.657Z,12.96
2019-05-19T06:04:42.935Z,12.97
2019-05-19T06:05:47.317Z,12.95
2019-05-19T06:06:51.697Z,12.98
2019-05-19T06:07:56.042Z,13.02
2019-05-19T06:09:00.363Z,13.06
2019-05-19T06:10:04.588Z,12.91
2019-05-19T06:11:09.013Z,12.75
2019-05-19T06:12:13.317Z,12.84
2019-05-19T06:13:17.688Z,12.90
2019-05-19T06:14:21.981Z,12.89
2019-05-19T06:15:26.337Z,12.91
2019-05-19T06:16:30.684Z,12.98
2019-05-19T06:17:35.000Z,13.04
2019-05-19T06:18:39.366Z,13.06
2019-05-19T06:19:43.677Z,13.03
2019-05-19T06:20:48.037Z,13.02
2019-05-19T06:21:52.361Z,13.06
2019-05-19T06:22:57.308Z,13.08
2019-05-19T06:24:01.071Z,13.10
2019-05-19T06:25:05.442Z,13.13
2019-05-19T06:26:09.812Z,13.13
2019-05-19T06:27:14.021Z,13.13
2019-05-19T06:28:18.470Z,13.11
2019-05-19T06:29:22.760Z,13.08
2019-05-19T06:30:27.075Z,13.04
2019-05-19T06:31:31.451Z,13.03
2019-05-19T06:32:35.788Z,13.03
2019-05-19T06:33:40.124Z,13.04
2019-05-19T06:34:44.473Z,13.05
2019-05-19T06:35:48.773Z,13.13
2019-05-19T06:36:55.084Z,13.11
2019-05-19T06:37:57.419Z,13.14
2019-05-19T06:39:01.796Z,13.17
2019-05-19T06:40:06.079Z,13.21
2019-05-19T06:41:10.488Z,13.20
2019-05-19T06:42:14.827Z,13.20
2019-05-19T06:43:19.163Z,13.19
2019-05-19T06:44:23.408Z,13.21
2019-05-19T06:45:27.854Z,13.18
2019-05-19T06:46:32.179Z,13.23
2019-05-19T06:47:36.512Z,13.32
2019-05-19T06:48:42.645Z,13.41
2019-05-19T06:49:46.404Z,13.46
2019-05-19T06:50:50.768Z,13.46
2019-05-19T06:51:55.026Z,13.57
2019-05-19T06:53:13.692Z,13.61
2019-05-19T06:54:03.662Z,13.71
2019-05-19T06:55:08.067Z,13.79
2019-05-19T06:56:12.477Z,13.69
2019-05-19T06:57:16.805Z,13.39
2019-05-19T06:58:21.156Z,13.43
2019-05-19T06:59:25.488Z,13.42
2019-05-19T07:00:29.843Z,13.54
2019-05-19T07:01:34.146Z,13.67
2019-05-19T07:02:38.554Z,13.89
2019-05-19T07:03:42.850Z,14.01
2019-05-19T07:04:47.231Z,14.14
2019-05-19T07:05:51.616Z,13.81
2019-05-19T07:06:56.019Z,13.55
2019-05-19T07:08:00.386Z,13.73
2019-05-19T07:09:04.758Z,13.98
2019-05-19T07:10:09.155Z,13.81
2019-05-19T07:11:13.517Z,13.90
2019-05-19T07:12:17.862Z,13.94
2019-05-19T07:13:22.139Z,14.02
2019-05-19T07:14:26.542Z,13.98
2019-05-19T07:15:30.896Z,13.99
2019-05-19T07:16:35.245Z,13.97
2019-05-19T07:17:39.669Z,14.00
2019-05-19T07:18:44.034Z,13.91
2019-05-19T07:19:48.431Z,14.11
2019-05-19T07:20:52.810Z,14.10
2019-05-19T07:21:57.171Z,14.22
2019-05-19T07:23:01.661Z,14.08
2019-05-19T07:24:05.941Z,14.05
2019-05-19T07:25:10.331Z,14.12
2019-05-19T07:26:14.722Z,14.08
2019-05-19T07:27:19.083Z,14.07
2019-05-19T07:28:23.487Z,14.04
2019-05-19T07:29:27.845Z,14.06
2019-05-19T07:30:32.275Z,14.04
2019-05-19T07:31:36.622Z,14.13
2019-05-19T07:32:41.235Z,14.23
2019-05-19T07:33:45.434Z,14.12
2019-05-19T07:34:49.865Z,14.31
2019-05-19T07:35:54.218Z,14.26
2019-05-19T07:36:58.615Z,14.44
2019-05-19T07:38:02.997Z,14.43
2019-05-19T07:39:07.360Z,14.29
2019-05-19T07:40:11.742Z,14.34
2019-05-19T07:41:16.120Z,14.28
2019-05-19T07:42:20.530Z,14.44
2019-05-19T07:43:24.981Z,14.63
2019-05-19T07:44:29.302Z,14.46
2019-05-19T07:45:33.602Z,14.47
2019-05-19T07:46:38.009Z,14.57
2019-05-19T07:47:42.412Z,14.65
2019-05-19T07:48:46.824Z,14.69
2019-05-19T07:49:51.163Z,14.73
2019-05-19T07:50:55.570Z,14.85
2019-05-19T07:51:59.964Z,14.77
2019-05-19T07:53:04.375Z,14.81
2019-05-19T07:54:08.715Z,14.69
2019-05-19T07:55:13.133Z,14.75
2019-05-19T07:56:17.511Z,14.86
2019-05-19T07:57:21.911Z,14.70
2019-05-19T07:58:26.264Z,14.78
2019-05-19T07:59:30.615Z,14.88
2019-05-19T08:00:35.024Z,14.90
2019-05-19T08:01:39.383Z,14.71
2019-05-19T08:02:43.767Z,14.63
2019-05-19T08:03:48.174Z,14.63
2019-05-19T08:04:52.559Z,14.67
2019-05-19T08:05:57.210Z,14.72
2019-05-19T08:07:01.360Z,14.73
2019-05-19T08:08:05.763Z,14.67
2019-05-19T08:09:10.161Z,14.91
2019-05-19T08:10:14.560Z,15.02
2019-05-19T08:11:18.973Z,15.04
2019-05-19T08:12:23.336Z,15.07
2019-05-19T08:13:27.764Z,15.05
2019-05-19T08:14:32.182Z,15.12
2019-05-19T08:15:36.569Z,15.30
2019-05-19T08:16:40.940Z,15.33
2019-05-19T08:17:45.375Z,15.30
2019-05-19T08:18:49.855Z,15.30
2019-05-19T08:19:54.167Z,15.19
2019-05-19T08:20:58.615Z,15.23
2019-05-19T08:22:02.965Z,15.28
2019-05-19T08:23:07.386Z,15.41
2019-05-19T08:24:11.808Z,15.00
2019-05-19T08:25:16.197Z,14.61
2019-05-19T08:26:20.670Z,14.53
2019-05-19T08:27:25.006Z,14.79
2019-05-19T08:28:29.403Z,15.11
2019-05-19T08:29:33.804Z,15.21
2019-05-19T08:30:38.221Z,14.89
2019-05-19T08:31:42.647Z,15.05
2019-05-19T08:32:47.027Z,15.29
2019-05-19T08:33:51.422Z,15.45
2019-05-19T08:34:55.860Z,15.49
2019-05-19T08:36:00.243Z,15.56
2019-05-19T08:37:04.646Z,15.54
2019-05-19T08:38:09.027Z,15.40
2019-05-19T08:39:13.444Z,15.42
2019-05-19T08:40:17.867Z,15.57
2019-05-19T08:41:22.231Z,14.95
2019-05-19T08:42:26.614Z,14.88
2019-05-19T08:43:30.966Z,15.18
2019-05-19T08:44:35.404Z,14.83
2019-05-19T08:45:39.815Z,15.25
2019-05-19T08:46:44.158Z,15.55
2019-05-19T08:47:48.637Z,15.02
2019-05-19T08:48:58.410Z,15.59
2019-05-19T08:49:59.625Z,15.28
2019-05-19T08:51:03.938Z,15.64
2019-05-19T08:52:08.379Z,15.24
2019-05-19T08:53:12.786Z,15.51
2019-05-19T08:54:19.067Z,15.67
2019-05-19T08:55:21.520Z,15.60
2019-05-19T08:56:25.977Z,15.51
2019-05-19T08:57:30.401Z,15.35
2019-05-19T08:58:34.805Z,15.49
2019-05-19T08:59:39.248Z,15.48
2019-05-19T09:00:43.564Z,15.58
2019-05-19T09:01:48.063Z,15.77
2019-05-19T09:02:52.466Z,15.58
2019-05-19T09:03:56.927Z,15.81
2019-05-19T09:05:01.328Z,15.99
2019-05-19T09:06:05.752Z,15.87
2019-05-19T09:07:10.174Z,16.10
2019-05-19T09:08:14.628Z,15.74
2019-05-19T09:09:19.106Z,15.96
2019-05-19T09:10:23.577Z,16.20
2019-05-19T09:11:27.946Z,16.16
2019-05-19T09:12:32.472Z,16.11
2019-05-19T09:13:36.889Z,16.21
2019-05-19T09:14:41.291Z,15.90
2019-05-19T09:15:45.744Z,15.55
2019-05-19T09:16:50.183Z,15.74
2019-05-19T09:17:54.564Z,16.12
2019-05-19T09:18:58.948Z,16.19
2019-05-19T09:20:03.461Z,15.71
2019-05-19T09:21:07.879Z,15.37
2019-05-19T09:22:12.317Z,15.29
2019-05-19T09:23:16.695Z,14.84
2019-05-19T09:24:29.922Z,15.43
2019-05-19T09:25:25.595Z,15.57
2019-05-19T09:26:29.994Z,15.76
2019-05-19T09:27:34.327Z,16.01
2019-05-19T09:28:38.823Z,15.90
2019-05-19T09:29:43.359Z,15.97
2019-05-19T09:30:47.699Z,16.28
2019-05-19T09:31:52.109Z,15.99
2019-05-19T09:32:56.559Z,16.15
2019-05-19T09:34:00.972Z,15.58
2019-05-19T09:35:05.427Z,15.87
2019-05-19T09:36:09.889Z,15.70
2019-05-19T09:37:14.336Z,15.12
2019-05-19T09:38:18.729Z,15.07
2019-05-19T09:39:23.161Z,14.94
2019-05-19T09:40:27.737Z,15.36
2019-05-19T09:41:32.181Z,15.86
2019-05-19T09:42:36.581Z,15.93
2019-05-19T09:43:41.026Z,15.74
2019-05-19T09:44:45.453Z,15.97
2019-05-19T09:45:49.973Z,15.15
2019-05-19T09:46:54.214Z,14.86
2019-05-19T09:47:58.600Z,15.22
2019-05-19T09:49:03.078Z,15.69
2019-05-19T09:50:07.418Z,15.88
2019-05-19T09:51:11.849Z,15.99
2019-05-19T09:52:17.212Z,15.54
2019-05-19T09:53:20.713Z,14.95
2019-05-19T09:54:25.176Z,14.94
2019-05-19T09:55:29.634Z,15.18
2019-05-19T09:56:34.057Z,15.47
2019-05-19T09:57:38.476Z,15.08
2019-05-19T09:58:42.877Z,15.42
2019-05-19T09:59:47.309Z,15.64
2019-05-19T10:00:51.736Z,15.56
2019-05-19T10:01:56.190Z,15.72
2019-05-19T10:03:00.514Z,15.38
2019-05-19T10:04:07.072Z,16.09
2019-05-19T10:05:09.377Z,15.97
2019-05-19T10:06:13.795Z,15.25
2019-05-19T10:07:18.179Z,15.87
2019-05-19T10:08:22.609Z,16.21
2019-05-19T10:09:27.052Z,16.21
2019-05-19T10:10:31.538Z,15.56
2019-05-19T10:11:35.913Z,15.70
2019-05-19T10:12:40.302Z,15.11
2019-05-19T10:13:44.710Z,14.51
2019-05-19T10:14:49.193Z,14.64
2019-05-19T10:15:53.710Z,14.90
2019-05-19T10:16:58.201Z,15.35
2019-05-19T10:18:02.649Z,15.29
2019-05-19T10:19:07.091Z,15.48
2019-05-19T10:20:11.512Z,14.91
2019-05-19T10:21:15.989Z,15.24
2019-05-19T10:22:20.520Z,14.99
2019-05-19T10:23:24.850Z,15.02
2019-05-19T10:24:29.328Z,14.75
2019-05-19T10:25:33.811Z,14.63
2019-05-19T10:26:38.285Z,15.05
2019-05-19T10:27:42.722Z,15.16
2019-05-19T10:28:47.096Z,14.73
2019-05-19T10:29:51.565Z,14.08
2019-05-19T10:30:55.905Z,14.49
2019-05-19T10:32:00.425Z,14.46
2019-05-19T10:33:04.867Z,14.90
2019-05-19T10:34:09.314Z,15.39
2019-05-19T10:35:13.767Z,15.36
2019-05-19T10:36:18.222Z,15.35
2019-05-19T10:37:22.625Z,15.20
2019-05-19T10:38:27.132Z,15.26
2019-05-19T10:39:31.583Z,14.89
2019-05-19T10:40:36.003Z,15.28
2019-05-19T10:41:40.490Z,15.50
2019-05-19T10:42:44.980Z,15.88
2019-05-19T10:43:49.438Z,15.83
2019-05-19T10:44:53.912Z,15.24
2019-05-19T10:45:58.365Z,15.57
2019-05-19T10:47:02.810Z,15.94
2019-05-19T10:48:07.189Z,15.98
2019-05-19T10:49:11.660Z,15.37
2019-05-19T10:50:16.124Z,15.47
2019-05-19T10:51:20.581Z,16.07
2019-05-19T10:52:25.022Z,15.69
2019-05-19T10:53:29.505Z,15.69
2019-05-19T10:54:33.974Z,15.68
2019-05-19T10:55:38.427Z,16.13
2019-05-19T10:56:42.828Z,15.68
2019-05-19T10:57:47.300Z,15.46
2019-05-19T10:58:51.648Z,15.68
2019-05-19T10:59:56.261Z,14.70
2019-05-19T11:01:00.689Z,14.55
2019-05-19T11:02:05.173Z,14.50
2019-05-19T11:03:09.638Z,14.10
2019-05-19T11:04:14.074Z,14.66
2019-05-19T11:05:18.553Z,14.81
2019-05-19T11:06:23.011Z,14.66
2019-05-19T11:07:27.491Z,15.57
2019-05-19T11:08:31.956Z,15.42
2019-05-19T11:09:36.426Z,15.30
2019-05-19T11:10:41.041Z,15.64
2019-05-19T11:11:45.394Z,15.07
2019-05-19T11:12:49.858Z,14.78
2019-05-19T11:13:54.265Z,14.13
2019-05-19T11:14:58.771Z,14.24
2019-05-19T11:16:03.196Z,14.80
2019-05-19T11:17:07.646Z,15.21
2019-05-19T11:18:12.111Z,15.75
2019-05-19T11:19:16.539Z,15.54
2019-05-19T11:20:20.989Z,15.84
2019-05-19T11:21:25.470Z,14.26
2019-05-19T11:22:29.940Z,14.04
2019-05-19T11:23:34.418Z,14.53
2019-05-19T11:24:38.888Z,14.57
2019-05-19T11:25:51.503Z,14.94
2019-05-19T11:26:47.824Z,14.55
2019-05-19T11:27:52.284Z,14.82
2019-05-19T11:28:56.781Z,15.30
2019-05-19T11:30:01.191Z,16.03
2019-05-19T11:31:05.673Z,15.61
2019-05-19T11:32:10.118Z,15.18
2019-05-19T11:33:14.623Z,15.10
2019-05-19T11:34:19.098Z,15.81
2019-05-19T11:35:23.609Z,15.98
2019-05-19T11:36:28.002Z,15.61
2019-05-19T11:37:32.564Z,15.85
2019-05-19T11:38:37.062Z,15.82
2019-05-19T11:39:41.505Z,15.79
2019-05-19T11:40:45.997Z,15.84
2019-05-19T11:41:50.486Z,16.20
2019-05-19T11:42:54.923Z,16.07
2019-05-19T11:43:59.438Z,16.51
2019-05-19T11:45:03.961Z,15.73
2019-05-19T11:46:08.424Z,16.00
2019-05-19T11:47:12.925Z,16.20
2019-05-19T11:48:17.427Z,16.08
2019-05-19T11:49:21.947Z,15.92
2019-05-19T11:50:26.406Z,15.90
2019-05-19T11:51:30.812Z,15.74
2019-05-19T11:52:35.278Z,15.85
2019-05-19T11:53:39.816Z,15.57
2019-05-19T11:54:44.250Z,15.72
2019-05-19T11:55:48.731Z,15.82
2019-05-19T11:56:53.208Z,15.66
2019-05-19T11:57:57.682Z,15.98
2019-05-19T11:59:02.202Z,15.65
2019-05-19T12:00:09.570Z,15.99
2019-05-19T12:01:13.215Z,15.84
2019-05-19T12:02:17.683Z,15.82
2019-05-19T12:03:22.100Z,15.66
2019-05-19T12:04:26.628Z,16.11
2019-05-19T12:05:31.031Z,16.14
2019-05-19T12:06:39.444Z,15.65
2019-05-19T12:07:39.897Z,15.75
2019-05-19T12:08:44.397Z,15.83
2019-05-19T12:09:48.925Z,15.38
2019-05-19T12:10:53.408Z,15.30
2019-05-19T12:11:57.921Z,15.85
2019-05-19T12:13:02.379Z,15.29
2019-05-19T12:14:06.862Z,14.94
2019-05-19T12:15:11.349Z,15.63
2019-05-19T12:16:15.840Z,15.74
2019-05-19T12:17:20.313Z,14.90
2019-05-19T12:18:24.822Z,14.97
2019-05-19T12:19:29.309Z,14.81
2019-05-19T12:20:33.820Z,14.99
2019-05-19T12:21:38.331Z,15.34
2019-05-19T12:22:42.807Z,15.57
2019-05-19T12:23:47.251Z,15.96
2019-05-19T12:24:51.767Z,16.30
2019-05-19T12:25:56.249Z,16.33
2019-05-19T12:27:00.695Z,15.62
2019-05-19T12:28:05.204Z,15.48
2019-05-19T12:29:09.719Z,15.63
2019-05-19T12:30:14.175Z,15.83
2019-05-19T12:31:18.635Z,16.15
2019-05-19T12:32:23.098Z,16.01
2019-05-19T12:33:27.490Z,15.70
2019-05-19T12:34:32.028Z,16.10
2019-05-19T12:35:36.566Z,16.08
2019-05-19T12:36:41.038Z,16.47
2019-05-19T12:37:45.534Z,16.54
2019-05-19T12:38:50.054Z,16.90
2019-05-19T12:39:54.569Z,17.05
2019-05-19T12:40:59.049Z,16.07
2019-05-19T12:42:03.544Z,16.20
2019-05-19T12:43:08.050Z,16.38
2019-05-19T12:44:12.554Z,16.07
2019-05-19T12:45:17.018Z,16.28
2019-05-19T12:46:21.541Z,15.70
2019-05-19T12:47:26.037Z,15.55
2019-05-19T12:48:30.438Z,15.35
2019-05-19T12:49:34.964Z,15.50
2019-05-19T12:50:39.463Z,16.04
2019-05-19T12:51:43.956Z,16.40
2019-05-19T12:52:48.412Z,16.10
2019-05-19T12:53:52.894Z,16.73
2019-05-19T12:54:57.344Z,16.53
2019-05-19T12:56:01.898Z,16.44
2019-05-19T12:57:06.378Z,16.32
2019-05-19T12:58:10.848Z,16.35
2019-05-19T12:59:15.237Z,16.29
2019-05-19T13:00:19.783Z,16.14
2019-05-19T13:01:24.299Z,16.02
2019-05-19T13:02:28.677Z,16.32
2019-05-19T13:03:33.133Z,15.61
2019-05-19T13:04:37.653Z,15.85
2019-05-19T13:05:42.160Z,15.85
2019-05-19T13:06:46.660Z,15.96
2019-05-19T13:07:51.086Z,15.59
2019-05-19T13:08:55.590Z,15.72
2019-05-19T13:10:00.078Z,15.83
2019-05-19T13:11:04.593Z,15.87
2019-05-19T13:12:09.006Z,15.83
2019-05-19T13:13:13.480Z,16.03
2019-05-19T13:14:17.959Z,16.20
2019-05-19T13:15:22.444Z,16.40
2019-05-19T13:16:26.948Z,16.23
2019-05-19T13:17:31.440Z,16.18
2019-05-19T13:18:35.942Z,16.39
2019-05-19T13:19:40.473Z,16.12
2019-05-19T13:20:44.859Z,16.11
2019-05-19T13:21:49.336Z,15.79
2019-05-19T13:22:53.871Z,15.90
2019-05-19T13:23:58.393Z,16.23
2019-05-19T13:25:02.886Z,15.92
2019-05-19T13:26:07.318Z,15.99
2019-05-19T13:27:11.806Z,15.82
2019-05-19T13:28:16.304Z,16.01
2019-05-19T13:29:20.747Z,15.54
2019-05-19T13:30:25.222Z,15.57
2019-05-19T13:31:29.720Z,15.21
2019-05-19T13:32:34.229Z,15.56
2019-05-19T13:33:38.673Z,15.21
2019-05-19T13:34:43.089Z,15.30
2019-05-19T13:35:47.572Z,15.34
2019-05-19T13:36:52.085Z,15.39
2019-05-19T13:37:56.543Z,15.53
2019-05-19T13:39:01.018Z,15.45
2019-05-19T13:40:05.462Z,15.29
2019-05-19T13:41:09.867Z,15.55
2019-05-19T13:42:14.384Z,15.52
2019-05-19T13:43:18.909Z,15.39
2019-05-19T13:44:23.228Z,14.86
2019-05-19T13:45:27.739Z,15.27
2019-05-19T13:46:32.216Z,15.30
2019-05-19T13:47:36.587Z,15.05
2019-05-19T13:48:41.070Z,14.80